Погода Киселевкана 2 недели

Могилёвская область, Белоруссия

24 мая-06 июня
  • 24мая
    Сегодня
    +10°
    +22°
    Ясно и безоблачно
    ВремяПогодаТемператураВлажностьДавлениеВетер, м/сВероятность осадков
    00:00Ясно и безоблачно+14°C53 %756 мм4.7 м/с2 %
    03:00Ясно и безоблачно+12°C55 %756 мм4.6 м/с2 %
    06:00Ясно и безоблачно+11°C57 %757 мм4.4 м/с2 %
    09:00Ясно и безоблачно+15°C49 %758 мм5.0 м/с2 %
    12:00Ясно и безоблачно+20°C41 %758 мм5.1 м/с2 %
    15:00Ясно и безоблачно+21°C37 %758 мм4.9 м/с2 %
    18:00Ясно и безоблачно+21°C39 %757 мм4.6 м/с2 %
    21:00Ясно и безоблачно+16°C54 %757 мм3.4 м/с2 %
  • 25мая
    Суббота
    +10°
    +24°
    Ясно и безоблачно
    ВремяПогодаТемператураВлажностьДавлениеВетер, м/сВероятность осадков
    00:00Ясно и безоблачно+13°C57 %758 мм3.8 м/с2 %
    03:00Ясно и безоблачно+12°C60 %757 мм3.6 м/с2 %
    06:00Ясно и безоблачно+11°C63 %757 мм3.1 м/с2 %
    09:00Ясно и безоблачно+17°C52 %758 мм3.0 м/с2 %
    12:00Ясно и безоблачно+22°C41 %757 мм3.1 м/с2 %
    15:00Ясно и безоблачно+23°C36 %756 мм2.8 м/с2 %
    18:00Ясно и безоблачно+23°C36 %755 мм2.5 м/с2 %
    21:00Ясно и безоблачно+18°C61 %755 мм2.3 м/с2 %
  • 26мая
    Воскресенье
    +10°
    +25°
    Практически безоблачно
    ВремяПогодаТемператураВлажностьДавлениеВетер, м/сВероятность осадков
    00:00Ясно и безоблачно+13°C63 %755 мм2.6 м/с2 %
    03:00Облачно с прояснениями+11°C71 %755 мм2.9 м/с2 %
    06:00Облачно с прояснениями+12°C71 %755 мм0.5 м/с2 %
    09:00Небольшая облачность+19°C51 %755 мм0.8 м/с2 %
    12:00Практически безоблачно+23°C37 %755 мм2.0 м/с2 %
    15:00Практически безоблачно+24°C32 %754 мм2.8 м/с2 %
    18:00Ясно и безоблачно+24°C34 %754 мм3.2 м/с2 %
    21:00Небольшая облачность+21°C47 %754 мм1.0 м/с2 %
  • 27мая
    Понедельник
    +12°
    +25°
    Практически безоблачно
    ВремяПогодаТемператураВлажностьДавлениеВетер, м/сВероятность осадков
    00:00Ясно и безоблачно+13°C76 %754 мм2.4 м/с2 %
    03:00Ясно и безоблачно+13°C76 %754 мм0.5 м/с2 %
    06:00Ясно и безоблачно+13°C82 %754 мм1.3 м/с2 %
    09:00Ясно и безоблачно+20°C62 %755 мм1.4 м/с3 %
    12:00Практически безоблачно+25°C41 %755 мм1.4 м/с11 %
    15:00Практически безоблачно+25°C40 %755 мм1.8 м/с21 %
    18:00Небольшая облачность и лёгкий дождик+25°C50 %755 мм2.8 м/с32 %
    21:00Практически безоблачно+20°C72 %755 мм2.7 м/с5 %
  • 28мая
    Вторник
    +13°
    +25°
    Ясно и безоблачно
    ВремяПогодаТемператураВлажностьДавлениеВетер, м/сВероятность осадков
    00:00Ясно и безоблачно+16°C66 %755 мм3.7 м/с2 %
    03:00Ясно и безоблачно+14°C63 %755 мм3.1 м/с2 %
    06:00Ясно и безоблачно+14°C66 %755 мм3.3 м/с2 %
    09:00Ясно и безоблачно+19°C53 %755 мм3.3 м/с2 %
    12:00Ясно и безоблачно+23°C44 %755 мм3.9 м/с2 %
    15:00Ясно и безоблачно+25°C41 %754 мм3.5 м/с4 %
    18:00Ясно и безоблачно+25°C42 %753 мм3.2 м/с7 %
    21:00Ясно и безоблачно+21°C61 %753 мм2.3 м/с2 %
Мы используем cookies
Соглашаюсь